createdAt,value
2022-11-29T00:01:31.829Z,9.33
2022-11-29T00:03:59.362Z,9.35
2022-11-29T00:06:31.735Z,9.34
2022-11-29T00:09:01.013Z,9.31
2022-11-29T00:11:49.312Z,9.31
2022-11-29T00:14:17.695Z,9.33
2022-11-29T00:16:44.565Z,9.32
2022-11-29T00:19:12.725Z,9.31
2022-11-29T00:21:39.325Z,9.31
2022-11-29T00:24:06.522Z,9.32
2022-11-29T00:26:33.428Z,9.33
2022-11-29T00:28:59.971Z,9.32
2022-11-29T00:31:30.533Z,9.28
2022-11-29T00:33:59.286Z,9.26
2022-11-29T00:36:26.065Z,9.25
2022-11-29T00:38:53.076Z,9.23
2022-11-29T00:41:20.260Z,9.25
2022-11-29T00:43:47.685Z,9.25
2022-11-29T00:46:14.228Z,9.26
2022-11-29T00:48:40.858Z,9.26
2022-11-29T00:51:08.416Z,9.24
2022-11-29T00:53:35.829Z,9.22
2022-11-29T00:56:03.183Z,9.21
2022-11-29T00:58:30.235Z,9.17
2022-11-29T01:00:57.016Z,9.18
2022-11-29T01:03:24.570Z,9.19
2022-11-29T01:05:51.299Z,9.19
2022-11-29T01:08:18.448Z,9.20
2022-11-29T01:10:45.138Z,9.19
2022-11-29T01:13:12.149Z,9.21
2022-11-29T01:15:38.779Z,9.20
2022-11-29T01:18:05.663Z,9.23
2022-11-29T01:20:32.294Z,9.24
2022-11-29T01:22:59.053Z,9.24
2022-11-29T01:25:26.059Z,9.26
2022-11-29T01:27:52.807Z,9.25
2022-11-29T01:30:19.520Z,9.25
2022-11-29T01:32:46.211Z,9.26
2022-11-29T01:35:12.788Z,9.26
2022-11-29T01:37:39.348Z,9.26
2022-11-29T01:40:06.769Z,9.25
2022-11-29T01:42:33.439Z,9.23
2022-11-29T01:45:28.035Z,9.24
2022-11-29T01:47:58.183Z,9.22
2022-11-29T01:50:25.170Z,9.23
2022-11-29T01:52:52.269Z,9.22
2022-11-29T01:55:19.286Z,9.23
2022-11-29T01:57:46.164Z,9.21
2022-11-29T02:00:18.529Z,9.21
2022-11-29T02:02:51.441Z,9.22
2022-11-29T02:05:19.855Z,9.21
2022-11-29T02:07:51.060Z,9.19
2022-11-29T02:10:18.367Z,9.20
2022-11-29T02:13:27.074Z,9.19
2022-11-29T02:16:24.034Z,9.19
2022-11-29T02:19:05.304Z,9.19
2022-11-29T02:21:41.308Z,9.18
2022-11-29T02:24:16.736Z,9.19
2022-11-29T02:27:07.527Z,9.17
2022-11-29T02:30:19.522Z,9.16
2022-11-29T02:33:07.408Z,9.13
2022-11-29T02:35:45.340Z,9.13
2022-11-29T02:38:30.813Z,9.12
2022-11-29T02:41:22.512Z,9.11
2022-11-29T02:43:59.488Z,9.11
2022-11-29T02:46:44.297Z,9.12
2022-11-29T02:49:41.791Z,9.13
2022-11-29T02:52:18.364Z,9.14
2022-11-29T02:54:54.025Z,9.14
2022-11-29T02:57:29.511Z,9.15
2022-11-29T03:00:07.903Z,9.16
2022-11-29T03:02:59.944Z,9.17
2022-11-29T03:05:35.454Z,9.18
2022-11-29T03:08:20.114Z,9.17
2022-11-29T03:10:56.347Z,9.17
2022-11-29T03:14:03.234Z,9.17
2022-11-29T03:16:43.748Z,9.18
2022-11-29T03:19:41.191Z,9.17
2022-11-29T03:22:19.846Z,9.15
2022-11-29T03:25:02.734Z,9.14
2022-11-29T03:27:39.821Z,9.16
2022-11-29T03:30:11.290Z,9.15
2022-11-29T03:33:09.783Z,9.11
2022-11-29T03:35:57.716Z,9.10
2022-11-29T03:38:35.385Z,9.10
2022-11-29T03:41:12.046Z,9.09
2022-11-29T03:43:45.775Z,9.09
2022-11-29T03:46:21.502Z,9.10
2022-11-29T03:48:59.409Z,9.07
2022-11-29T03:51:39.867Z,9.05
2022-11-29T03:54:22.016Z,9.04
2022-11-29T03:56:49.064Z,9.00
2022-11-29T03:59:47.186Z,8.98
2022-11-29T04:02:50.826Z,8.97
2022-11-29T04:05:43.727Z,8.97
2022-11-29T04:08:56.566Z,8.97
2022-11-29T04:12:08.581Z,8.97
2022-11-29T04:15:00.107Z,8.99
2022-11-29T04:17:36.972Z,8.97
2022-11-29T04:20:18.779Z,8.96
2022-11-29T04:22:48.274Z,8.97
2022-11-29T04:25:43.855Z,8.97
2022-11-29T04:28:35.125Z,8.96
2022-11-29T04:31:22.812Z,8.95
2022-11-29T04:33:58.288Z,8.91
2022-11-29T04:36:37.390Z,8.89
2022-11-29T04:39:41.321Z,8.88
2022-11-29T04:42:29.292Z,8.85
2022-11-29T04:45:27.724Z,8.84
2022-11-29T04:48:12.376Z,8.81
2022-11-29T04:50:58.953Z,8.78
2022-11-29T04:53:25.604Z,8.77
2022-11-29T04:56:06.446Z,8.76
2022-11-29T04:58:41.985Z,8.74
2022-11-29T05:01:21.868Z,8.68
2022-11-29T05:04:01.504Z,8.64
2022-11-29T05:07:08.220Z,8.64
2022-11-29T05:10:13.514Z,8.62
2022-11-29T05:13:03.083Z,8.57
2022-11-29T05:15:56.924Z,8.57
2022-11-29T05:19:02.433Z,8.59
2022-11-29T05:22:03.229Z,8.59
2022-11-29T05:24:53.653Z,8.59
2022-11-29T05:27:43.630Z,8.60
2022-11-29T05:30:22.393Z,8.62
2022-11-29T05:33:11.482Z,8.63
2022-11-29T05:35:50.558Z,8.62
2022-11-29T05:38:24.286Z,8.58
2022-11-29T05:41:12.179Z,8.57
2022-11-29T05:44:03.749Z,8.51
2022-11-29T05:46:48.802Z,8.48
2022-11-29T05:49:36.504Z,8.47
2022-11-29T05:52:30.268Z,8.46
2022-11-29T05:55:19.596Z,8.47
2022-11-29T05:57:46.099Z,8.49
2022-11-29T06:00:14.723Z,8.48
2022-11-29T06:03:06.251Z,8.42
2022-11-29T06:05:46.872Z,8.40
2022-11-29T06:08:18.485Z,8.42
2022-11-29T06:10:57.696Z,8.45
2022-11-29T06:13:30.040Z,8.44
2022-11-29T06:16:14.598Z,8.42
2022-11-29T06:19:17.221Z,8.41
2022-11-29T06:22:21.501Z,8.35
2022-11-29T06:24:48.129Z,8.34
2022-11-29T06:27:17.603Z,8.32
2022-11-29T06:30:14.372Z,8.29
2022-11-29T06:32:55.254Z,8.32
2022-11-29T06:35:36.978Z,8.31
2022-11-29T06:38:20.913Z,8.29
2022-11-29T06:40:48.044Z,8.25
2022-11-29T06:43:14.975Z,8.22
2022-11-29T06:45:48.446Z,8.20
2022-11-29T06:48:30.327Z,8.14
2022-11-29T06:50:59.577Z,8.16
2022-11-29T06:53:57.887Z,8.18
2022-11-29T06:56:33.392Z,8.18
2022-11-29T06:59:29.788Z,8.18
2022-11-29T07:02:05.953Z,8.18
2022-11-29T07:04:46.397Z,8.15
2022-11-29T07:07:20.817Z,8.14
2022-11-29T07:09:51.643Z,8.10
2022-11-29T07:12:18.793Z,8.11
2022-11-29T07:14:46.135Z,8.14
2022-11-29T07:17:35.726Z,8.14
2022-11-29T07:20:15.583Z,8.15
2022-11-29T07:22:57.299Z,8.19
2022-11-29T07:25:37.500Z,8.19
2022-11-29T07:28:22.090Z,8.20
2022-11-29T07:31:07.776Z,8.23
2022-11-29T07:33:58.974Z,8.22
2022-11-29T07:36:41.193Z,8.24
2022-11-29T07:39:28.609Z,8.23
2022-11-29T07:42:13.607Z,8.23
2022-11-29T07:44:50.778Z,8.24
2022-11-29T07:47:17.590Z,8.21
2022-11-29T07:49:44.153Z,8.22
2022-11-29T07:52:12.590Z,8.21
2022-11-29T07:54:40.417Z,8.19
2022-11-29T07:57:07.175Z,8.18
2022-11-29T07:59:33.784Z,8.14
2022-11-29T08:02:00.904Z,8.16
2022-11-29T08:04:27.645Z,8.19
2022-11-29T08:06:54.210Z,8.21
2022-11-29T08:09:20.780Z,8.17
2022-11-29T08:11:48.968Z,8.13
2022-11-29T08:14:15.618Z,8.15
2022-11-29T08:16:42.257Z,8.14
2022-11-29T08:19:08.972Z,8.18
2022-11-29T08:21:35.625Z,8.19
2022-11-29T08:24:02.402Z,8.19
2022-11-29T08:26:31.897Z,8.22
2022-11-29T08:28:58.744Z,8.26
2022-11-29T08:31:26.138Z,8.26
2022-11-29T08:33:52.810Z,8.24
2022-11-29T08:36:20.603Z,8.23
2022-11-29T08:38:47.430Z,8.26
2022-11-29T08:41:17.117Z,8.26
2022-11-29T08:43:44.735Z,8.21
2022-11-29T08:46:18.199Z,8.22
2022-11-29T08:48:46.168Z,8.25
2022-11-29T08:51:13.047Z,8.27
2022-11-29T08:53:42.904Z,8.27
2022-11-29T08:57:04.275Z,8.26
2022-11-29T08:59:01.617Z,8.25
2022-11-29T09:01:29.375Z,8.24
2022-11-29T09:04:07.240Z,8.22
2022-11-29T09:06:38.924Z,8.23
2022-11-29T09:09:05.812Z,8.22
2022-11-29T09:11:33.996Z,8.24
2022-11-29T09:14:04.029Z,8.28
2022-11-29T09:16:33.982Z,8.33
2022-11-29T09:19:00.969Z,8.36
2022-11-29T09:21:30.774Z,8.32
2022-11-29T09:23:59.898Z,8.29
2022-11-29T09:26:29.293Z,8.30
2022-11-29T09:28:58.318Z,8.28
2022-11-29T09:31:25.099Z,8.29
2022-11-29T09:33:52.208Z,8.28
2022-11-29T09:36:22.621Z,8.31
2022-11-29T09:38:53.289Z,8.37
2022-11-29T09:41:50.693Z,8.43
2022-11-29T09:44:36.526Z,8.40
2022-11-29T09:47:06.058Z,8.42
2022-11-29T09:49:54.625Z,8.43
2022-11-29T09:52:39.790Z,8.42
2022-11-29T09:55:39.191Z,8.48
2022-11-29T09:58:12.126Z,8.58
2022-11-29T10:00:59.981Z,8.60
2022-11-29T10:03:34.109Z,8.64
2022-11-29T10:06:17.714Z,8.62
2022-11-29T10:08:51.860Z,8.63
2022-11-29T10:11:25.096Z,8.66
2022-11-29T10:14:00.403Z,8.68
2022-11-29T10:16:36.129Z,8.68
2022-11-29T10:19:15.269Z,8.68
2022-11-29T10:21:45.567Z,8.70
2022-11-29T10:24:20.336Z,8.74
2022-11-29T10:26:46.994Z,8.77
2022-11-29T10:29:15.819Z,8.80
2022-11-29T10:31:49.495Z,8.83
2022-11-29T10:34:20.016Z,8.86
2022-11-29T10:36:55.747Z,8.87
2022-11-29T10:39:25.253Z,8.83
2022-11-29T10:42:02.541Z,8.81
2022-11-29T10:44:32.083Z,8.81
2022-11-29T10:47:05.499Z,8.79
2022-11-29T10:49:38.030Z,8.81
2022-11-29T10:52:05.786Z,8.86
2022-11-29T10:54:40.325Z,8.93
2022-11-29T10:57:19.353Z,8.96
2022-11-29T11:00:09.752Z,9.01
2022-11-29T11:02:37.043Z,9.04
2022-11-29T11:05:12.449Z,9.05
2022-11-29T11:07:39.158Z,9.03
2022-11-29T11:10:21.908Z,9.05
2022-11-29T11:13:07.110Z,9.04
2022-11-29T11:15:34.099Z,9.07
2022-11-29T11:18:05.051Z,9.09
2022-11-29T11:20:35.020Z,9.11
2022-11-29T11:23:08.012Z,9.12
2022-11-29T11:25:39.621Z,9.16
2022-11-29T11:28:20.577Z,9.20
2022-11-29T11:30:53.703Z,9.26
2022-11-29T11:33:25.491Z,9.30
2022-11-29T11:36:15.330Z,9.33
2022-11-29T11:38:50.011Z,9.35
2022-11-29T11:41:51.154Z,9.36
2022-11-29T11:44:49.468Z,9.41
2022-11-29T11:47:27.981Z,9.42
2022-11-29T11:50:08.004Z,9.39
2022-11-29T11:52:58.394Z,9.37
2022-11-29T11:55:30.645Z,9.35
2022-11-29T11:58:22.460Z,9.36
2022-11-29T12:01:14.603Z,9.38
2022-11-29T12:03:56.890Z,9.40
2022-11-29T12:06:54.679Z,9.44
2022-11-29T12:09:33.351Z,9.46
2022-11-29T12:12:10.474Z,9.40
2022-11-29T12:15:01.202Z,9.39
2022-11-29T12:17:44.307Z,9.36
2022-11-29T12:20:31.509Z,9.41
2022-11-29T12:23:13.702Z,9.41
2022-11-29T12:25:50.622Z,9.44
2022-11-29T12:28:20.833Z,9.46
2022-11-29T12:31:15.082Z,9.48
2022-11-29T12:33:41.823Z,9.49
2022-11-29T12:36:41.110Z,9.50
2022-11-29T12:39:13.729Z,9.45
2022-11-29T12:41:54.391Z,9.42
2022-11-29T12:44:48.188Z,9.40
2022-11-29T12:47:55.262Z,9.34
2022-11-29T12:50:21.783Z,9.39
2022-11-29T12:52:51.238Z,9.42
2022-11-29T12:55:24.617Z,9.44
2022-11-29T12:57:51.121Z,9.49
2022-11-29T13:00:21.236Z,9.53
2022-11-29T13:02:53.210Z,9.57
2022-11-29T13:05:38.974Z,9.59
2022-11-29T13:08:47.297Z,9.57
2022-11-29T13:11:25.296Z,9.60
2022-11-29T13:14:13.521Z,9.68
2022-11-29T13:16:56.382Z,9.74
2022-11-29T13:19:28.667Z,9.75
2022-11-29T13:22:07.343Z,9.72
2022-11-29T13:24:43.375Z,9.71
2022-11-29T13:27:34.573Z,9.72
2022-11-29T13:30:02.014Z,9.74
2022-11-29T13:32:34.825Z,9.77
2022-11-29T13:35:27.248Z,9.68
2022-11-29T13:38:25.598Z,9.67
2022-11-29T13:41:01.733Z,9.69
2022-11-29T13:43:45.739Z,9.73
2022-11-29T13:46:42.275Z,9.75
2022-11-29T13:49:21.386Z,9.77
2022-11-29T13:51:48.450Z,9.79
2022-11-29T13:54:30.814Z,9.83
2022-11-29T13:57:05.383Z,9.87
2022-11-29T13:59:34.718Z,9.87
2022-11-29T14:02:02.325Z,9.91
2022-11-29T14:04:39.172Z,9.92
2022-11-29T14:07:12.596Z,9.88
2022-11-29T14:09:51.534Z,9.89
2022-11-29T14:12:37.707Z,9.92
2022-11-29T14:15:24.657Z,9.91
2022-11-29T14:17:56.692Z,9.93
2022-11-29T14:20:23.339Z,9.97
2022-11-29T14:23:05.234Z,9.98
2022-11-29T14:26:03.024Z,9.95
2022-11-29T14:28:29.523Z,9.94
2022-11-29T14:31:07.142Z,9.95
2022-11-29T14:33:37.416Z,9.97
2022-11-29T14:36:18.853Z,9.98
2022-11-29T14:39:05.042Z,9.99
2022-11-29T14:41:48.006Z,9.95
2022-11-29T14:44:24.354Z,9.92
2022-11-29T14:47:01.666Z,9.94
2022-11-29T14:49:29.176Z,9.97
2022-11-29T14:52:13.540Z,9.95
2022-11-29T14:55:02.689Z,9.96
2022-11-29T14:57:47.305Z,9.95
2022-11-29T15:00:28.384Z,9.95
2022-11-29T15:03:09.818Z,9.92
2022-11-29T15:05:40.807Z,9.90
2022-11-29T15:08:32.319Z,9.89
2022-11-29T15:11:11.402Z,9.88
2022-11-29T15:13:51.113Z,9.88
2022-11-29T15:16:50.262Z,9.87
2022-11-29T15:19:16.849Z,9.87
2022-11-29T15:22:14.845Z,9.84
2022-11-29T15:24:52.917Z,9.81
2022-11-29T15:27:20.030Z,9.78
2022-11-29T15:29:49.531Z,9.77
2022-11-29T15:32:28.338Z,9.75
2022-11-29T15:34:56.418Z,9.75
2022-11-29T15:37:31.854Z,9.75
2022-11-29T15:40:05.554Z,9.75
2022-11-29T15:42:50.657Z,9.72
2022-11-29T15:45:26.695Z,9.70
2022-11-29T15:47:53.576Z,9.67
2022-11-29T15:50:31.186Z,9.65
2022-11-29T15:53:04.934Z,9.66
2022-11-29T15:55:33.155Z,9.63
2022-11-29T15:58:08.493Z,9.62
2022-11-29T16:00:37.269Z,9.63
2022-11-29T16:03:05.112Z,9.64
2022-11-29T16:05:37.392Z,9.63
2022-11-29T16:08:08.725Z,9.64
2022-11-29T16:11:02.839Z,9.61
2022-11-29T16:13:39.292Z,9.58
2022-11-29T16:16:07.987Z,9.60
2022-11-29T16:18:36.118Z,9.60
2022-11-29T16:21:07.723Z,9.59
2022-11-29T16:23:36.306Z,9.60
2022-11-29T16:26:22.442Z,9.60
2022-11-29T16:28:52.637Z,9.60
2022-11-29T16:31:24.896Z,9.58
2022-11-29T16:33:52.695Z,9.58
2022-11-29T16:36:27.774Z,9.58
2022-11-29T16:39:22.679Z,9.58
2022-11-29T16:42:30.136Z,9.58
2022-11-29T16:45:23.448Z,9.58
2022-11-29T16:47:53.026Z,9.59
2022-11-29T16:50:22.751Z,9.60
2022-11-29T16:52:54.976Z,9.61
2022-11-29T16:55:22.935Z,9.61
2022-11-29T16:57:49.669Z,9.63
2022-11-29T17:00:23.931Z,9.65
2022-11-29T17:02:50.629Z,9.64
2022-11-29T17:05:17.452Z,9.63
2022-11-29T17:07:44.328Z,9.63
2022-11-29T17:10:15.402Z,9.65
2022-11-29T17:12:47.779Z,9.65
2022-11-29T17:15:14.922Z,9.65
2022-11-29T17:17:46.431Z,9.66
2022-11-29T17:20:13.972Z,9.67
2022-11-29T17:22:41.409Z,9.69
2022-11-29T17:25:09.105Z,9.71
2022-11-29T17:27:35.951Z,9.72
2022-11-29T17:30:04.666Z,9.71
2022-11-29T17:32:34.547Z,9.73
2022-11-29T17:35:01.270Z,9.72
2022-11-29T17:37:29.951Z,9.72
2022-11-29T17:39:56.980Z,9.70
2022-11-29T17:42:23.900Z,9.69
2022-11-29T17:44:50.792Z,9.67
2022-11-29T17:47:17.471Z,9.65
2022-11-29T17:49:44.776Z,9.64
2022-11-29T17:52:11.717Z,9.63
2022-11-29T17:54:38.567Z,9.63
2022-11-29T17:57:06.083Z,9.64
2022-11-29T17:59:32.944Z,9.62
2022-11-29T18:01:59.881Z,9.60
2022-11-29T18:04:26.692Z,9.59
2022-11-29T18:06:53.389Z,9.58
2022-11-29T18:09:20.248Z,9.57
2022-11-29T18:11:49.691Z,9.57
2022-11-29T18:14:20.060Z,9.57
2022-11-29T18:16:46.865Z,9.58
2022-11-29T18:19:17.279Z,9.59
2022-11-29T18:21:44.178Z,9.58
2022-11-29T18:24:11.459Z,9.60
2022-11-29T18:26:38.749Z,9.62
2022-11-29T18:29:06.733Z,9.62
2022-11-29T18:31:36.289Z,9.61
2022-11-29T18:34:09.919Z,9.61
2022-11-29T18:36:46.427Z,9.62
2022-11-29T18:39:18.993Z,9.62
2022-11-29T18:41:48.076Z,9.61
2022-11-29T18:44:16.482Z,9.59
2022-11-29T18:46:44.998Z,9.59
2022-11-29T18:49:14.492Z,9.60
2022-11-29T18:51:44.623Z,9.59
2022-11-29T18:54:12.569Z,9.57
2022-11-29T18:56:40.687Z,9.56
2022-11-29T18:59:13.756Z,9.52
2022-11-29T19:01:42.841Z,9.53
2022-11-29T19:04:15.104Z,9.50
2022-11-29T19:06:42.767Z,9.50
2022-11-29T19:09:23.916Z,9.50
2022-11-29T19:11:50.914Z,9.45
2022-11-29T19:14:18.442Z,9.42
2022-11-29T19:16:47.181Z,9.40
2022-11-29T19:19:13.875Z,9.34
2022-11-29T19:21:41.179Z,9.34
2022-11-29T19:24:17.594Z,9.30
2022-11-29T19:26:46.169Z,9.22
2022-11-29T19:29:13.930Z,9.19
2022-11-29T19:31:40.952Z,9.19
2022-11-29T19:34:07.839Z,9.18
2022-11-29T19:36:37.086Z,9.15
2022-11-29T19:39:03.847Z,9.09
2022-11-29T19:41:32.982Z,9.06
2022-11-29T19:44:01.795Z,9.01
2022-11-29T19:46:34.716Z,8.96
2022-11-29T19:49:02.755Z,8.93
2022-11-29T19:51:30.249Z,8.88
2022-11-29T19:53:59.986Z,8.83
2022-11-29T19:56:28.160Z,8.79
2022-11-29T19:58:55.406Z,8.81
2022-11-29T20:01:25.261Z,8.79
2022-11-29T20:03:52.730Z,8.78
2022-11-29T20:06:19.893Z,8.76
2022-11-29T20:08:47.341Z,8.76
2022-11-29T20:11:19.673Z,8.77
2022-11-29T20:13:52.681Z,8.74
2022-11-29T20:16:19.480Z,8.70
2022-11-29T20:18:51.593Z,8.65
2022-11-29T20:21:28.584Z,8.61
2022-11-29T20:24:03.688Z,8.57
2022-11-29T20:26:32.960Z,8.53
2022-11-29T20:29:00.045Z,8.48
2022-11-29T20:31:27.043Z,8.49
2022-11-29T20:33:57.403Z,8.48
2022-11-29T20:36:47.784Z,8.51
2022-11-29T20:39:38.344Z,8.53
2022-11-29T20:42:23.235Z,8.48
2022-11-29T20:44:57.323Z,8.46
2022-11-29T20:47:53.080Z,8.47
2022-11-29T20:50:28.985Z,8.40
2022-11-29T20:53:43.258Z,8.38
2022-11-29T20:56:11.370Z,8.34
2022-11-29T20:58:38.297Z,8.29
2022-11-29T21:01:05.570Z,8.19
2022-11-29T21:03:32.624Z,8.14
2022-11-29T21:06:02.625Z,8.14
2022-11-29T21:08:29.694Z,8.14
2022-11-29T21:11:05.550Z,8.08
2022-11-29T21:13:32.835Z,8.05
2022-11-29T21:16:00.275Z,8.06
2022-11-29T21:18:28.642Z,8.09
2022-11-29T21:21:16.655Z,8.12
2022-11-29T21:23:58.935Z,8.15
2022-11-29T21:26:51.673Z,8.18
2022-11-29T21:29:21.298Z,8.22
2022-11-29T21:31:50.823Z,8.20
2022-11-29T21:34:17.599Z,8.17
2022-11-29T21:36:48.739Z,8.12
2022-11-29T21:39:16.612Z,8.13
2022-11-29T21:41:43.232Z,8.10
2022-11-29T21:44:10.165Z,8.09
2022-11-29T21:46:36.933Z,8.02
2022-11-29T21:49:04.780Z,7.99
2022-11-29T21:51:31.417Z,7.92
2022-11-29T21:53:58.055Z,7.89
2022-11-29T21:56:25.018Z,7.86
2022-11-29T21:58:51.684Z,7.86
2022-11-29T22:01:20.564Z,7.89
2022-11-29T22:03:47.718Z,7.91
2022-11-29T22:06:20.481Z,7.95
2022-11-29T22:08:48.372Z,7.96
2022-11-29T22:11:30.885Z,7.98
2022-11-29T22:14:16.099Z,7.95
2022-11-29T22:16:50.198Z,7.92
2022-11-29T22:19:20.345Z,7.92
2022-11-29T22:21:49.482Z,7.89
2022-11-29T22:24:18.886Z,7.87
2022-11-29T22:26:46.105Z,7.88
2022-11-29T22:29:16.607Z,7.91
2022-11-29T22:31:44.935Z,7.91
2022-11-29T22:34:11.680Z,7.88
2022-11-29T22:36:39.018Z,7.86
2022-11-29T22:39:07.217Z,7.85
2022-11-29T22:41:35.828Z,7.87
2022-11-29T22:44:03.539Z,7.85
2022-11-29T22:46:30.528Z,7.85
2022-11-29T22:49:00.440Z,7.82
2022-11-29T22:51:32.697Z,7.83
2022-11-29T22:54:04.625Z,7.84
2022-11-29T22:56:34.448Z,7.85
2022-11-29T22:59:01.566Z,7.86
2022-11-29T23:01:30.739Z,7.87
2022-11-29T23:03:59.517Z,7.88
2022-11-29T23:06:36.870Z,7.89
2022-11-29T23:09:25.419Z,7.86
2022-11-29T23:11:54.248Z,7.86
2022-11-29T23:14:22.298Z,7.88
2022-11-29T23:16:49.554Z,7.89
2022-11-29T23:19:16.370Z,7.90
2022-11-29T23:21:45.532Z,7.89
2022-11-29T23:24:12.712Z,7.88
2022-11-29T23:26:43.590Z,7.89
2022-11-29T23:29:13.239Z,7.91
2022-11-29T23:31:40.264Z,7.88
2022-11-29T23:34:07.480Z,7.86
2022-11-29T23:36:34.824Z,7.87
2022-11-29T23:39:01.664Z,7.87
2022-11-29T23:41:28.252Z,7.87
2022-11-29T23:43:55.088Z,7.86
2022-11-29T23:46:24.048Z,7.87
2022-11-29T23:48:51.089Z,7.86
2022-11-29T23:51:18.280Z,7.86
2022-11-29T23:53:46.765Z,7.85
2022-11-29T23:56:17.837Z,7.87
2022-11-29T23:58:45.033Z,7.86
